createdAt,value
2019-02-09T00:00:52.615Z,5.78
2019-02-09T00:01:52.597Z,5.82
2019-02-09T00:02:52.591Z,5.76
2019-02-09T00:03:52.577Z,5.81
2019-02-09T00:04:52.571Z,5.81
2019-02-09T00:05:52.556Z,5.78
2019-02-09T00:06:52.547Z,5.83
2019-02-09T00:07:52.531Z,5.76
2019-02-09T00:08:52.521Z,5.76
2019-02-09T00:09:52.519Z,5.79
2019-02-09T00:10:52.501Z,5.75
2019-02-09T00:11:52.502Z,5.79
2019-02-09T00:12:52.489Z,5.79
2019-02-09T00:13:52.466Z,5.75
2019-02-09T00:14:52.454Z,5.76
2019-02-09T00:15:52.452Z,5.78
2019-02-09T00:16:52.435Z,5.78
2019-02-09T00:17:52.427Z,5.68
2019-02-09T00:18:52.426Z,5.78
2019-02-09T00:19:52.399Z,5.78
2019-02-09T00:20:52.389Z,5.81
2019-02-09T00:21:52.396Z,5.78
2019-02-09T00:22:52.372Z,5.75
2019-02-09T00:23:52.369Z,5.79
2019-02-09T00:24:52.345Z,5.75
2019-02-09T00:25:52.334Z,5.82
2019-02-09T00:26:52.325Z,5.78
2019-02-09T00:27:52.311Z,5.78
2019-02-09T00:28:52.315Z,5.79
2019-02-09T00:29:52.308Z,5.82
2019-02-09T00:30:52.284Z,5.75
2019-02-09T00:31:52.268Z,5.85
2019-02-09T00:32:52.261Z,5.81
2019-02-09T00:33:52.251Z,5.83
2019-02-09T00:34:52.243Z,5.82
2019-02-09T00:35:52.225Z,5.76
2019-02-09T00:36:52.219Z,5.83
2019-02-09T00:37:52.202Z,5.78
2019-02-09T00:38:52.190Z,5.79
2019-02-09T00:39:52.189Z,5.76
2019-02-09T00:40:52.183Z,5.85
2019-02-09T00:41:52.162Z,5.81
2019-02-09T00:42:52.152Z,5.86
2019-02-09T00:43:52.140Z,5.85
2019-02-09T00:44:52.126Z,5.78
2019-02-09T00:45:52.117Z,5.90
2019-02-09T00:46:52.110Z,5.89
2019-02-09T00:47:52.099Z,5.86
2019-02-09T00:48:52.082Z,5.94
2019-02-09T00:49:52.074Z,5.91
2019-02-09T00:50:52.062Z,5.86
2019-02-09T00:51:52.058Z,5.83
2019-02-09T00:52:52.041Z,5.91
2019-02-09T00:53:52.031Z,5.91
2019-02-09T00:54:52.020Z,5.90
2019-02-09T00:55:52.008Z,5.90
2019-02-09T00:56:51.998Z,5.83
2019-02-09T00:57:51.997Z,5.85
2019-02-09T00:58:51.985Z,5.90
2019-02-09T00:59:54.138Z,5.86
2019-02-09T01:00:51.952Z,5.83
2019-02-09T01:01:51.946Z,5.81
2019-02-09T01:02:51.933Z,5.85
2019-02-09T01:03:51.919Z,5.85
2019-02-09T01:04:51.921Z,5.86
2019-02-09T01:05:51.893Z,5.90
2019-02-09T01:06:51.945Z,5.82
2019-02-09T01:07:51.877Z,5.86
2019-02-09T01:08:51.873Z,5.82
2019-02-09T01:09:51.879Z,5.83
2019-02-09T01:10:51.839Z,5.79
2019-02-09T01:11:51.831Z,5.75
2019-02-09T01:12:51.818Z,5.79
2019-02-09T01:13:51.811Z,5.81
2019-02-09T01:14:51.802Z,5.76
2019-02-09T01:15:51.794Z,5.76
2019-02-09T01:16:51.779Z,5.76
2019-02-09T01:17:51.771Z,5.76
2019-02-09T01:18:51.754Z,5.71
2019-02-09T01:19:51.748Z,5.78
2019-02-09T01:20:51.734Z,5.79
2019-02-09T01:21:51.727Z,5.74
2019-02-09T01:22:51.720Z,5.79
2019-02-09T01:23:51.705Z,5.79
2019-02-09T01:24:51.695Z,5.74
2019-02-09T01:25:51.684Z,5.75
2019-02-09T01:26:51.677Z,5.76
2019-02-09T01:27:51.659Z,5.75
2019-02-09T01:28:51.646Z,5.81
2019-02-09T01:29:51.638Z,5.76
2019-02-09T01:30:51.630Z,5.78
2019-02-09T01:31:51.619Z,5.81
2019-02-09T01:32:51.645Z,5.71
2019-02-09T01:33:51.595Z,5.61
2019-02-09T01:34:51.590Z,5.63
2019-02-09T01:35:51.577Z,5.71
2019-02-09T01:36:51.566Z,5.63
2019-02-09T01:37:51.549Z,5.61
2019-02-09T01:38:51.543Z,5.63
2019-02-09T01:39:51.523Z,5.63
2019-02-09T01:40:51.513Z,5.57
2019-02-09T01:41:51.502Z,5.67
2019-02-09T01:42:51.492Z,5.65
2019-02-09T01:43:51.482Z,5.61
2019-02-09T01:44:51.473Z,5.65
2019-02-09T01:45:51.466Z,5.65
2019-02-09T01:46:51.454Z,5.68
2019-02-09T01:47:51.442Z,5.63
2019-02-09T01:48:51.428Z,5.63
2019-02-09T01:49:51.427Z,5.67
2019-02-09T01:50:51.412Z,5.68
2019-02-09T01:51:51.403Z,5.58
2019-02-09T01:52:51.405Z,5.57
2019-02-09T01:53:51.385Z,5.65
2019-02-09T01:54:51.365Z,5.65
2019-02-09T01:55:51.356Z,5.61
2019-02-09T01:56:51.348Z,5.64
2019-02-09T01:57:51.337Z,5.63
2019-02-09T01:58:51.330Z,5.61
2019-02-09T01:59:51.323Z,5.64
2019-02-09T02:00:51.304Z,5.53
2019-02-09T02:01:51.294Z,5.56
2019-02-09T02:02:51.281Z,5.58
2019-02-09T02:03:51.269Z,5.58
2019-02-09T02:04:51.304Z,5.58
2019-02-09T02:05:51.249Z,5.57
2019-02-09T02:06:51.237Z,5.60
2019-02-09T02:07:51.225Z,5.64
2019-02-09T02:08:51.220Z,5.65
2019-02-09T02:09:51.216Z,5.58
2019-02-09T02:10:51.199Z,5.61
2019-02-09T02:11:51.177Z,5.67
2019-02-09T02:12:51.170Z,5.61
2019-02-09T02:13:51.168Z,5.58
2019-02-09T02:14:51.144Z,5.61
2019-02-09T02:15:51.138Z,5.63
2019-02-09T02:16:51.125Z,5.63
2019-02-09T02:17:51.123Z,5.61
2019-02-09T02:18:51.109Z,5.65
2019-02-09T02:19:51.092Z,5.63
2019-02-09T02:20:51.100Z,5.65
2019-02-09T02:21:51.076Z,5.67
2019-02-09T02:22:51.060Z,5.63
2019-02-09T02:23:51.047Z,5.64
2019-02-09T02:24:51.042Z,5.58
2019-02-09T02:25:51.041Z,5.72
2019-02-09T02:26:51.026Z,5.64
2019-02-09T02:27:51.024Z,5.61
2019-02-09T02:28:50.998Z,5.81
2019-02-09T02:29:50.990Z,5.78
2019-02-09T02:30:50.980Z,5.75
2019-02-09T02:31:50.966Z,5.61
2019-02-09T02:32:51.661Z,5.65
2019-02-09T02:33:50.949Z,5.64
2019-02-09T02:34:50.935Z,5.78
2019-02-09T02:35:50.932Z,5.81
2019-02-09T02:36:50.940Z,5.81
2019-02-09T02:37:50.900Z,5.72
2019-02-09T02:38:50.898Z,5.76
2019-02-09T02:39:50.905Z,5.82
2019-02-09T02:40:50.867Z,5.76
2019-02-09T02:41:50.859Z,5.76
2019-02-09T02:42:50.846Z,5.82
2019-02-09T02:43:50.838Z,5.89
2019-02-09T02:44:50.834Z,5.85
2019-02-09T02:45:50.816Z,5.93
2019-02-09T02:46:50.803Z,5.94
2019-02-09T02:47:50.794Z,5.85
2019-02-09T02:48:50.788Z,5.94
2019-02-09T02:49:50.767Z,5.94
2019-02-09T02:50:50.756Z,6.03
2019-02-09T02:51:50.748Z,6.01
2019-02-09T02:52:50.739Z,6.11
2019-02-09T02:53:50.736Z,6.06
2019-02-09T02:54:50.720Z,6.19
2019-02-09T02:55:50.713Z,6.14
2019-02-09T02:56:50.695Z,6.33
2019-02-09T02:57:50.683Z,6.19
2019-02-09T02:58:50.669Z,6.18
2019-02-09T02:59:50.664Z,6.30
2019-02-09T03:00:50.657Z,6.36
2019-02-09T03:01:50.645Z,6.34
2019-02-09T03:02:50.628Z,6.28
2019-02-09T03:03:50.617Z,6.37
2019-02-09T03:04:50.610Z,6.44
2019-02-09T03:05:50.599Z,6.40
2019-02-09T03:06:50.582Z,6.40
2019-02-09T03:07:50.571Z,6.34
2019-02-09T03:08:50.568Z,6.33
2019-02-09T03:09:50.551Z,6.56
2019-02-09T03:10:50.547Z,6.41
2019-02-09T03:11:50.534Z,6.46
2019-02-09T03:12:50.528Z,6.56
2019-02-09T03:13:50.507Z,6.56
2019-02-09T03:14:50.499Z,6.58
2019-02-09T03:15:50.485Z,6.58
2019-02-09T03:16:50.478Z,6.59
2019-02-09T03:17:50.472Z,6.61
2019-02-09T03:18:50.455Z,6.58
2019-02-09T03:19:50.440Z,6.62
2019-02-09T03:20:50.430Z,6.64
2019-02-09T03:21:50.418Z,6.61
2019-02-09T03:22:50.412Z,6.48
2019-02-09T03:23:50.401Z,6.52
2019-02-09T03:24:50.388Z,6.52
2019-02-09T03:25:50.378Z,6.56
2019-02-09T03:26:50.368Z,6.51
2019-02-09T03:27:50.355Z,6.48
2019-02-09T03:28:50.352Z,6.46
2019-02-09T03:29:50.334Z,6.44
2019-02-09T03:30:50.326Z,6.59
2019-02-09T03:31:50.314Z,6.61
2019-02-09T03:32:50.304Z,6.51
2019-02-09T03:33:50.289Z,6.66
2019-02-09T03:34:50.286Z,6.48
2019-02-09T03:35:50.268Z,6.55
2019-02-09T03:36:50.253Z,6.49
2019-02-09T03:37:50.246Z,6.58
2019-02-09T03:38:50.244Z,6.52
2019-02-09T03:39:50.222Z,6.64
2019-02-09T03:40:50.222Z,6.49
2019-02-09T03:41:50.204Z,6.59
2019-02-09T03:42:50.192Z,6.64
2019-02-09T03:43:50.190Z,6.59
2019-02-09T03:44:50.175Z,6.56
2019-02-09T03:45:50.158Z,6.59
2019-02-09T03:46:50.147Z,6.49
2019-02-09T03:47:50.134Z,6.56
2019-02-09T03:48:50.125Z,6.46
2019-02-09T03:49:50.118Z,6.51
2019-02-09T03:50:50.104Z,6.56
2019-02-09T03:51:50.096Z,6.56
2019-02-09T03:52:50.082Z,6.52
2019-02-09T03:53:50.067Z,6.55
2019-02-09T03:54:50.067Z,6.52
2019-02-09T03:55:50.047Z,6.56
2019-02-09T03:56:50.041Z,6.55
2019-02-09T03:57:50.036Z,6.61
2019-02-09T03:58:50.020Z,6.56
2019-02-09T03:59:50.010Z,6.62
2019-02-09T04:00:55.248Z,6.59
2019-02-09T04:01:50.986Z,6.58
2019-02-09T04:02:49.974Z,6.61
2019-02-09T04:03:49.957Z,6.71
2019-02-09T04:04:49.949Z,6.62
2019-02-09T04:05:49.940Z,6.62
2019-02-09T04:06:49.958Z,6.73
2019-02-09T04:07:49.927Z,6.85
2019-02-09T04:08:49.910Z,6.58
2019-02-09T04:09:49.892Z,6.62
2019-02-09T04:10:49.890Z,6.74
2019-02-09T04:11:49.870Z,6.76
2019-02-09T04:12:49.860Z,6.77
2019-02-09T04:13:49.863Z,6.76
2019-02-09T04:14:49.848Z,6.74
2019-02-09T04:15:49.826Z,6.85
2019-02-09T04:16:49.818Z,6.88
2019-02-09T04:17:49.808Z,6.85
2019-02-09T04:18:49.800Z,6.85
2019-02-09T04:19:49.794Z,6.89
2019-02-09T04:20:49.774Z,6.89
2019-02-09T04:21:49.766Z,6.81
2019-02-09T04:22:49.799Z,6.85
2019-02-09T04:23:49.768Z,6.87
2019-02-09T04:24:49.737Z,6.85
2019-02-09T04:25:49.732Z,6.88
2019-02-09T04:26:49.712Z,6.84
2019-02-09T04:27:49.703Z,6.97
2019-02-09T04:28:49.690Z,6.91
2019-02-09T04:29:49.694Z,6.87
2019-02-09T04:30:49.667Z,7.02
2019-02-09T04:31:49.664Z,6.95
2019-02-09T04:32:49.645Z,6.97
2019-02-09T04:33:49.635Z,6.99
2019-02-09T04:34:49.630Z,6.91
2019-02-09T04:35:49.611Z,6.97
2019-02-09T04:36:49.611Z,6.98
2019-02-09T04:37:49.588Z,6.92
2019-02-09T04:38:49.576Z,6.91
2019-02-09T04:39:49.565Z,6.88
2019-02-09T04:40:49.558Z,6.95
2019-02-09T04:41:49.547Z,7.03
2019-02-09T04:42:49.535Z,6.91
2019-02-09T04:43:49.524Z,6.94
2019-02-09T04:44:49.508Z,6.94
2019-02-09T04:45:49.505Z,6.98
2019-02-09T04:46:49.490Z,6.97
2019-02-09T04:47:49.485Z,7.10
2019-02-09T04:48:49.474Z,7.02
2019-02-09T04:49:49.462Z,6.95
2019-02-09T04:50:49.448Z,6.97
2019-02-09T04:51:49.458Z,6.89
2019-02-09T04:52:49.429Z,6.94
2019-02-09T04:53:49.421Z,6.88
2019-02-09T04:54:49.404Z,6.95
2019-02-09T04:55:49.396Z,6.94
2019-02-09T04:56:49.385Z,6.94
2019-02-09T04:57:49.376Z,6.94
2019-02-09T04:58:49.366Z,6.95
2019-02-09T04:59:49.356Z,6.99
2019-02-09T05:00:49.346Z,6.99
2019-02-09T05:01:49.330Z,7.06
2019-02-09T05:02:49.325Z,7.05
2019-02-09T05:03:49.307Z,7.02
2019-02-09T05:04:49.315Z,7.10
2019-02-09T05:05:49.285Z,7.02
2019-02-09T05:06:49.288Z,7.09
2019-02-09T05:07:49.262Z,7.10
2019-02-09T05:08:49.258Z,7.12
2019-02-09T05:09:49.241Z,7.07
2019-02-09T05:10:49.240Z,7.05
2019-02-09T05:11:49.216Z,7.13
2019-02-09T05:12:49.212Z,7.07
2019-02-09T05:13:49.199Z,7.10
2019-02-09T05:14:49.196Z,7.12
2019-02-09T05:15:49.184Z,7.13
2019-02-09T05:16:49.179Z,7.10
2019-02-09T05:17:49.164Z,7.10
2019-02-09T05:18:49.146Z,7.24
2019-02-09T05:19:49.138Z,7.13
2019-02-09T05:20:49.133Z,7.20
2019-02-09T05:21:49.119Z,7.10
2019-02-09T05:22:49.120Z,7.12
2019-02-09T05:23:49.092Z,7.17
2019-02-09T05:24:49.091Z,7.15
2019-02-09T05:25:49.081Z,7.16
2019-02-09T05:26:49.063Z,7.16
2019-02-09T05:27:49.062Z,7.13
2019-02-09T05:28:49.040Z,7.17
2019-02-09T05:29:49.035Z,7.12
2019-02-09T05:30:49.026Z,7.10
2019-02-09T05:31:49.021Z,7.10
2019-02-09T05:32:49.002Z,7.10
2019-02-09T05:33:48.995Z,7.05
2019-02-09T05:34:48.982Z,7.13
2019-02-09T05:35:48.978Z,7.13
2019-02-09T05:36:48.967Z,7.15
2019-02-09T05:37:48.946Z,7.16
2019-02-09T05:38:48.947Z,7.07
2019-02-09T05:39:48.934Z,7.13
2019-02-09T05:40:48.912Z,7.13
2019-02-09T05:41:48.914Z,7.03
2019-02-09T05:42:48.902Z,7.07
2019-02-09T05:43:48.891Z,7.06
2019-02-09T05:44:48.874Z,7.06
2019-02-09T05:45:48.860Z,7.03
2019-02-09T05:46:48.856Z,7.05
2019-02-09T05:47:48.841Z,7.06
2019-02-09T05:48:48.843Z,6.97
2019-02-09T05:49:48.822Z,6.95
2019-02-09T05:50:48.814Z,6.98
2019-02-09T05:51:48.796Z,7.05
2019-02-09T05:52:48.787Z,6.89
2019-02-09T05:53:48.781Z,6.97
2019-02-09T05:54:48.777Z,6.94
2019-02-09T05:55:48.787Z,6.98
2019-02-09T05:56:48.752Z,6.87
2019-02-09T05:57:48.733Z,6.91
2019-02-09T05:58:48.726Z,6.89
2019-02-09T05:59:48.706Z,6.89
2019-02-09T06:00:49.658Z,6.77
2019-02-09T06:01:48.690Z,6.88
2019-02-09T06:03:19.417Z,6.85
2019-02-09T06:04:19.374Z,6.84
2019-02-09T06:05:50.072Z,6.91
2019-02-09T06:06:50.067Z,6.85
2019-02-09T06:07:50.042Z,6.77
2019-02-09T06:08:50.034Z,6.77
2019-02-09T06:09:50.019Z,6.73
2019-02-09T06:10:50.033Z,6.73
2019-02-09T06:11:50.014Z,6.69
2019-02-09T06:12:50.008Z,6.59
2019-02-09T06:13:49.984Z,6.56
2019-02-09T06:14:49.966Z,6.48
2019-02-09T06:15:49.957Z,6.44
2019-02-09T06:16:49.950Z,6.36
2019-02-09T06:17:49.938Z,6.36
2019-02-09T06:18:49.924Z,6.19
2019-02-09T06:19:49.914Z,6.17
2019-02-09T06:20:49.906Z,6.27
2019-02-09T06:21:49.900Z,6.15
2019-02-09T06:22:49.899Z,6.06
2019-02-09T06:23:49.883Z,5.99
2019-02-09T06:24:49.861Z,6.01
2019-02-09T06:25:49.846Z,6.00
2019-02-09T06:27:20.530Z,6.00
2019-02-09T06:28:20.527Z,5.99
2019-02-09T06:29:51.220Z,5.94
2019-02-09T06:30:51.202Z,5.94
2019-02-09T06:31:52.067Z,5.96
2019-02-09T06:32:51.183Z,5.89
2019-02-09T06:33:51.177Z,5.91
2019-02-09T06:34:51.172Z,6.00
2019-02-09T06:35:51.141Z,5.89
2019-02-09T06:36:51.137Z,6.00
2019-02-09T06:37:51.127Z,5.86
2019-02-09T06:38:51.119Z,5.86
2019-02-09T06:39:51.112Z,5.86
2019-02-09T06:40:51.094Z,5.86
2019-02-09T06:41:51.081Z,5.90
2019-02-09T06:42:51.071Z,5.96
2019-02-09T06:43:51.061Z,5.94
2019-02-09T06:44:51.053Z,5.96
2019-02-09T06:45:51.037Z,5.97
2019-02-09T06:46:51.023Z,6.03
2019-02-09T06:47:51.022Z,6.04
2019-02-09T06:48:51.015Z,6.00
2019-02-09T06:49:50.996Z,6.03
2019-02-09T06:51:21.677Z,6.11
2019-02-09T06:52:21.651Z,6.06
2019-02-09T06:53:52.324Z,6.06
2019-02-09T06:54:52.306Z,6.12
2019-02-09T06:55:52.296Z,6.15
2019-02-09T06:56:52.289Z,6.08
2019-02-09T06:57:52.286Z,6.14
2019-02-09T06:58:52.272Z,6.08
2019-02-09T06:59:52.262Z,6.17
2019-02-09T07:00:52.245Z,6.11
2019-02-09T07:01:52.236Z,6.18
2019-02-09T07:02:52.230Z,6.09
2019-02-09T07:03:52.221Z,6.01
2019-02-09T07:04:52.197Z,6.11
2019-02-09T07:05:52.192Z,6.17
2019-02-09T07:06:52.217Z,6.15
2019-02-09T07:07:52.226Z,6.12
2019-02-09T07:08:52.162Z,6.12
2019-02-09T07:09:52.166Z,6.08
2019-02-09T07:10:52.134Z,6.15
2019-02-09T07:11:52.133Z,6.15
2019-02-09T07:12:52.161Z,6.06
2019-02-09T07:13:52.107Z,6.17
2019-02-09T07:15:22.884Z,6.12
2019-02-09T07:16:22.859Z,6.21
2019-02-09T07:17:53.525Z,6.19
2019-02-09T07:18:53.506Z,6.18
2019-02-09T07:19:53.496Z,6.17
2019-02-09T07:20:53.486Z,6.17
2019-02-09T07:21:53.493Z,6.17
2019-02-09T07:22:53.462Z,6.22
2019-02-09T07:23:53.456Z,6.18
2019-02-09T07:24:55.041Z,6.25
2019-02-09T07:25:53.435Z,6.09
2019-02-09T07:26:53.428Z,6.12
2019-02-09T07:27:53.414Z,6.09
2019-02-09T07:28:53.397Z,6.06
2019-02-09T07:29:53.393Z,6.06
2019-02-09T07:30:53.380Z,6.08
2019-02-09T07:31:56.553Z,6.06
2019-02-09T07:32:53.359Z,6.04
2019-02-09T07:33:53.350Z,6.09
2019-02-09T07:34:53.336Z,6.12
2019-02-09T07:35:53.323Z,6.04
2019-02-09T07:36:53.317Z,6.09
2019-02-09T07:37:53.302Z,6.08
2019-02-09T07:38:53.303Z,6.11
2019-02-09T07:39:53.279Z,6.14
2019-02-09T07:40:53.268Z,6.11
2019-02-09T07:41:53.254Z,6.08
2019-02-09T07:42:53.253Z,6.06
2019-02-09T07:43:53.241Z,6.06
2019-02-09T07:44:53.237Z,6.00
2019-02-09T07:45:53.221Z,6.03
2019-02-09T07:46:53.212Z,6.01
2019-02-09T07:47:53.191Z,6.11
2019-02-09T07:48:53.183Z,6.09
2019-02-09T07:49:53.221Z,6.01
2019-02-09T07:50:53.172Z,6.06
2019-02-09T07:51:53.151Z,6.03
2019-02-09T07:52:53.149Z,6.09
2019-02-09T07:53:53.128Z,6.09
2019-02-09T07:54:53.126Z,6.08
2019-02-09T07:55:53.118Z,6.08
2019-02-09T07:56:53.092Z,6.01
2019-02-09T07:57:53.089Z,6.11
2019-02-09T07:58:53.079Z,6.12
2019-02-09T07:59:53.072Z,6.03
2019-02-09T08:00:53.058Z,6.04
2019-02-09T08:01:53.049Z,6.04
2019-02-09T08:02:53.032Z,6.09
2019-02-09T08:03:53.023Z,6.09
2019-02-09T08:04:53.014Z,6.11
2019-02-09T08:05:52.998Z,6.06
2019-02-09T08:06:53.051Z,6.11
2019-02-09T08:07:53.030Z,6.06
2019-02-09T08:08:52.975Z,6.11
2019-02-09T08:09:52.957Z,6.08
2019-02-09T08:10:52.947Z,6.11
2019-02-09T08:11:52.941Z,6.11
2019-02-09T08:12:52.934Z,6.14
2019-02-09T08:13:52.917Z,6.14
2019-02-09T08:14:52.905Z,6.12
2019-02-09T08:15:52.887Z,6.08
2019-02-09T08:16:52.882Z,6.08
2019-02-09T08:17:52.890Z,6.09
2019-02-09T08:18:52.880Z,6.11
2019-02-09T08:19:52.877Z,6.19
2019-02-09T08:20:52.837Z,6.14
2019-02-09T08:21:52.879Z,6.21
2019-02-09T08:22:53.403Z,6.27
2019-02-09T08:23:52.816Z,6.30
2019-02-09T08:24:52.802Z,6.33
2019-02-09T08:25:52.781Z,6.38
2019-02-09T08:26:52.774Z,6.38
2019-02-09T08:27:52.761Z,6.54
2019-02-09T08:28:52.750Z,6.51
2019-02-09T08:29:52.750Z,6.51
2019-02-09T08:30:52.732Z,6.52
2019-02-09T08:31:52.718Z,6.55
2019-02-09T08:32:52.704Z,6.59
2019-02-09T08:33:52.718Z,6.71
2019-02-09T08:34:52.689Z,6.69
2019-02-09T08:35:52.674Z,6.55
2019-02-09T08:36:52.667Z,6.61
2019-02-09T08:37:52.650Z,6.58
2019-02-09T08:38:52.645Z,6.59
2019-02-09T08:39:52.626Z,6.67
2019-02-09T08:40:52.628Z,6.67
2019-02-09T08:41:52.621Z,6.84
2019-02-09T08:42:52.600Z,6.79
2019-02-09T08:43:52.590Z,6.77
2019-02-09T08:44:52.587Z,6.62
2019-02-09T08:45:52.564Z,6.76
2019-02-09T08:46:52.552Z,6.73
2019-02-09T08:47:52.545Z,6.81
2019-02-09T08:48:52.531Z,6.76
2019-02-09T08:49:52.520Z,6.80
2019-02-09T08:50:52.521Z,6.76
2019-02-09T08:51:52.505Z,6.74
2019-02-09T08:52:52.682Z,6.85
2019-02-09T08:53:52.479Z,6.88
2019-02-09T08:54:52.469Z,6.94
2019-02-09T08:55:52.456Z,6.99
2019-02-09T08:56:52.447Z,6.99
2019-02-09T08:57:52.446Z,7.09
2019-02-09T08:58:52.432Z,7.24
2019-02-09T08:59:52.417Z,8.66
2019-02-09T09:00:52.403Z,11.14
2019-02-09T09:01:52.400Z,12.41
2019-02-09T09:02:52.390Z,13.11
2019-02-09T09:03:52.390Z,13.81
2019-02-09T09:04:52.369Z,14.06
2019-02-09T09:05:52.350Z,12.85
2019-02-09T09:06:52.336Z,11.52
2019-02-09T09:07:52.350Z,10.79
2019-02-09T09:08:52.325Z,10.23
2019-02-09T09:09:52.317Z,10.94
2019-02-09T09:10:52.303Z,11.28
2019-02-09T09:11:52.290Z,11.52
2019-02-09T09:12:52.275Z,11.80
2019-02-09T09:13:52.266Z,12.16
2019-02-09T09:14:52.262Z,12.75
2019-02-09T09:15:52.254Z,12.93
2019-02-09T09:16:52.237Z,12.35
2019-02-09T09:17:52.224Z,10.92
2019-02-09T09:18:52.223Z,12.41
2019-02-09T09:19:52.208Z,12.75
2019-02-09T09:20:52.202Z,12.04
2019-02-09T09:21:52.177Z,12.12
2019-02-09T09:22:52.174Z,13.22
2019-02-09T09:23:52.163Z,13.84
2019-02-09T09:24:52.162Z,14.68
2019-02-09T09:25:52.139Z,15.11
2019-02-09T09:26:52.140Z,14.43
2019-02-09T09:27:52.115Z,13.46
2019-02-09T09:28:52.115Z,14.24
2019-02-09T09:29:52.094Z,14.42
2019-02-09T09:30:52.083Z,13.51
2019-02-09T09:31:52.084Z,13.26
2019-02-09T09:32:52.072Z,12.82
2019-02-09T09:33:52.050Z,12.78
2019-02-09T09:34:52.043Z,13.39
2019-02-09T09:35:52.035Z,13.11
2019-02-09T09:36:52.042Z,12.16
2019-02-09T09:37:52.028Z,10.91
2019-02-09T09:38:52.001Z,10.27
2019-02-09T09:39:51.985Z,9.97
2019-02-09T09:40:51.983Z,9.75
2019-02-09T09:41:51.978Z,9.47
2019-02-09T09:42:51.960Z,9.31
2019-02-09T09:43:51.955Z,9.36
2019-02-09T09:44:51.938Z,9.28
2019-02-09T09:45:51.928Z,9.29
2019-02-09T09:46:51.915Z,9.32
2019-02-09T09:47:51.927Z,9.39
2019-02-09T09:48:51.899Z,9.64
2019-02-09T09:49:51.889Z,10.56
2019-02-09T09:50:51.881Z,11.14
2019-02-09T09:51:51.864Z,11.32
2019-02-09T09:52:51.857Z,11.83
2019-02-09T09:53:51.841Z,11.15
2019-02-09T09:54:51.830Z,10.42
2019-02-09T09:55:51.817Z,10.25
2019-02-09T09:56:51.821Z,10.36
2019-02-09T09:57:51.799Z,10.89
2019-02-09T09:58:51.793Z,11.24
2019-02-09T09:59:51.776Z,11.70
2019-02-09T10:00:51.765Z,11.75
2019-02-09T10:01:51.755Z,11.78
2019-02-09T10:02:51.741Z,11.82
2019-02-09T10:03:52.190Z,11.98
2019-02-09T10:04:51.733Z,12.21
2019-02-09T10:05:51.714Z,12.16
2019-02-09T10:06:51.709Z,11.91
2019-02-09T10:07:51.684Z,11.86
2019-02-09T10:08:51.681Z,11.88
2019-02-09T10:09:51.675Z,11.72
2019-02-09T10:10:51.662Z,11.83
2019-02-09T10:11:51.647Z,12.19
2019-02-09T10:12:51.642Z,12.21
2019-02-09T10:13:51.622Z,12.42
2019-02-09T10:14:51.612Z,12.64
2019-02-09T10:15:51.609Z,12.68
2019-02-09T10:16:51.595Z,12.47
2019-02-09T10:17:51.604Z,12.60
2019-02-09T10:18:51.571Z,12.86
2019-02-09T10:19:51.569Z,12.85
2019-02-09T10:20:51.550Z,12.83
2019-02-09T10:21:51.548Z,12.65
2019-02-09T10:22:51.538Z,12.64
2019-02-09T10:23:51.529Z,12.31
2019-02-09T10:24:51.506Z,12.19
2019-02-09T10:25:51.504Z,12.17
2019-02-09T10:26:51.491Z,12.50
2019-02-09T10:27:51.483Z,12.86
2019-02-09T10:28:51.487Z,13.11
2019-02-09T10:29:51.464Z,13.10
2019-02-09T10:30:51.442Z,13.00
2019-02-09T10:31:51.432Z,13.14
2019-02-09T10:32:51.424Z,13.29
2019-02-09T10:33:51.409Z,13.38
2019-02-09T10:34:51.405Z,13.62
2019-02-09T10:35:51.391Z,13.67
2019-02-09T10:36:51.379Z,13.29
2019-02-09T10:37:51.380Z,13.20
2019-02-09T10:38:51.848Z,13.29
2019-02-09T10:39:51.352Z,13.46
2019-02-09T10:40:51.362Z,13.29
2019-02-09T10:41:51.327Z,13.29
2019-02-09T10:42:51.319Z,13.30
2019-02-09T10:43:51.311Z,13.22
2019-02-09T10:44:51.310Z,13.30
2019-02-09T10:45:51.290Z,13.54
2019-02-09T10:46:51.280Z,13.51
2019-02-09T10:47:51.258Z,13.70
2019-02-09T10:48:51.257Z,13.42
2019-02-09T10:49:51.241Z,13.49
2019-02-09T10:50:51.227Z,13.12
2019-02-09T10:51:51.220Z,13.12
2019-02-09T10:52:51.203Z,13.22
2019-02-09T10:53:51.194Z,13.30
2019-02-09T10:54:51.189Z,13.22
2019-02-09T10:55:51.247Z,13.14
2019-02-09T10:56:51.165Z,13.33
2019-02-09T10:57:51.161Z,13.44
2019-02-09T10:58:51.139Z,13.52
2019-02-09T10:59:51.131Z,13.69
2019-02-09T11:00:51.126Z,13.38
2019-02-09T11:01:51.107Z,13.30
2019-02-09T11:02:52.224Z,13.23
2019-02-09T11:03:51.095Z,13.32
2019-02-09T11:04:51.075Z,13.12
2019-02-09T11:05:51.071Z,13.15
2019-02-09T11:06:51.062Z,12.87
2019-02-09T11:07:51.045Z,12.64
2019-02-09T11:08:51.037Z,12.79
2019-02-09T11:09:51.027Z,12.90
2019-02-09T11:10:51.017Z,12.71
2019-02-09T11:11:51.001Z,12.95
2019-02-09T11:12:50.997Z,13.28
2019-02-09T11:13:50.981Z,13.26
2019-02-09T11:14:50.977Z,13.00
2019-02-09T11:15:50.957Z,12.82
2019-02-09T11:16:50.951Z,12.49
2019-02-09T11:17:50.943Z,12.34
2019-02-09T11:18:50.939Z,12.19
2019-02-09T11:19:50.926Z,11.91
2019-02-09T11:20:50.916Z,11.79
2019-02-09T11:21:50.895Z,11.82
2019-02-09T11:22:50.883Z,11.76
2019-02-09T11:23:50.874Z,11.90
2019-02-09T11:24:50.862Z,12.35
2019-02-09T11:25:50.864Z,12.46
2019-02-09T11:26:50.837Z,12.29
2019-02-09T11:27:50.974Z,12.46
2019-02-09T11:28:50.814Z,12.46
2019-02-09T11:29:50.825Z,12.65
2019-02-09T11:30:50.800Z,12.47
2019-02-09T11:31:50.793Z,12.35
2019-02-09T11:32:50.775Z,12.19
2019-02-09T11:33:50.760Z,12.19
2019-02-09T11:34:50.748Z,12.16
2019-02-09T11:35:50.745Z,12.24
2019-02-09T11:36:50.771Z,12.42
2019-02-09T11:37:50.745Z,12.23
2019-02-09T11:38:50.706Z,11.98
2019-02-09T11:39:50.705Z,12.07
2019-02-09T11:40:50.946Z,12.04
2019-02-09T11:41:50.696Z,12.04
2019-02-09T11:42:50.679Z,12.02
2019-02-09T11:43:50.658Z,11.78
2019-02-09T11:44:50.642Z,11.73
2019-02-09T11:45:50.679Z,11.55
2019-02-09T11:46:50.621Z,11.47
2019-02-09T11:47:50.619Z,11.39
2019-02-09T11:48:50.609Z,11.39
2019-02-09T11:49:50.595Z,11.29
2019-02-09T11:50:50.589Z,11.25
2019-02-09T11:51:50.571Z,11.54
2019-02-09T11:52:50.561Z,11.90
2019-02-09T11:53:50.544Z,12.14
2019-02-09T11:54:50.539Z,12.38
2019-02-09T11:55:50.531Z,12.60
2019-02-09T11:56:50.515Z,12.67
2019-02-09T11:57:50.504Z,12.65
2019-02-09T11:58:50.499Z,12.71
2019-02-09T11:59:50.490Z,12.68
2019-02-09T12:00:50.477Z,12.59
2019-02-09T12:01:51.935Z,12.67
2019-02-09T12:02:50.448Z,12.83
2019-02-09T12:03:50.436Z,12.90
2019-02-09T12:04:50.435Z,12.89
2019-02-09T12:05:50.423Z,12.74
2019-02-09T12:06:50.419Z,12.42
2019-02-09T12:07:50.394Z,12.17
2019-02-09T12:08:50.382Z,11.83
2019-02-09T12:09:50.384Z,11.78
2019-02-09T12:10:50.375Z,11.60
2019-02-09T12:11:50.369Z,11.47
2019-02-09T12:12:50.351Z,11.47
2019-02-09T12:13:55.194Z,11.32
2019-02-09T12:14:51.328Z,11.40
2019-02-09T12:15:50.309Z,11.32
2019-02-09T12:16:50.301Z,11.29
2019-02-09T12:17:50.294Z,11.22
2019-02-09T12:18:50.280Z,11.27
2019-02-09T12:19:50.271Z,11.28
2019-02-09T12:20:50.272Z,11.24
2019-02-09T12:21:50.248Z,11.19
2019-02-09T12:22:50.242Z,11.18
2019-02-09T12:23:50.228Z,11.07
2019-02-09T12:24:50.216Z,11.11
2019-02-09T12:25:50.207Z,11.00
2019-02-09T12:26:50.200Z,10.88
2019-02-09T12:27:50.181Z,11.03
2019-02-09T12:28:50.190Z,11.14
2019-02-09T12:29:50.161Z,11.19
2019-02-09T12:30:50.150Z,10.89
2019-02-09T12:31:50.139Z,10.73
2019-02-09T12:32:50.134Z,10.47
2019-02-09T12:33:50.247Z,10.48
2019-02-09T12:34:50.106Z,10.26
2019-02-09T12:35:50.097Z,10.36
2019-02-09T12:36:50.088Z,10.44
2019-02-09T12:37:50.074Z,10.70
2019-02-09T12:38:50.064Z,10.78
2019-02-09T12:39:50.068Z,10.88
2019-02-09T12:40:50.038Z,10.97
2019-02-09T12:41:50.042Z,10.94
2019-02-09T12:42:50.023Z,11.04
2019-02-09T12:43:50.009Z,11.04
2019-02-09T12:44:50.001Z,11.10
2019-02-09T12:45:49.999Z,11.22
2019-02-09T12:46:49.992Z,11.21
2019-02-09T12:47:49.968Z,11.27
2019-02-09T12:48:50.460Z,11.32
2019-02-09T12:49:49.948Z,11.25
2019-02-09T12:50:49.933Z,11.29
2019-02-09T12:51:49.922Z,11.35
2019-02-09T12:52:49.913Z,11.29
2019-02-09T12:53:49.913Z,11.33
2019-02-09T12:54:49.891Z,11.35
2019-02-09T12:55:49.887Z,11.32
2019-02-09T12:56:49.880Z,11.39
2019-02-09T12:57:49.864Z,11.44
2019-02-09T12:58:49.853Z,11.42
2019-02-09T12:59:51.543Z,11.49
2019-02-09T13:00:49.825Z,11.52
2019-02-09T13:02:20.516Z,11.52
2019-02-09T13:03:20.484Z,11.47
2019-02-09T13:04:51.196Z,11.42
2019-02-09T13:05:51.135Z,11.46
2019-02-09T13:07:21.853Z,11.36
2019-02-09T13:08:21.812Z,11.28
2019-02-09T13:09:52.482Z,11.10
2019-02-09T13:10:52.482Z,11.04
2019-02-09T13:12:23.169Z,10.94
2019-02-09T13:13:23.323Z,10.91
2019-02-09T13:14:23.829Z,10.86
2019-02-09T13:15:23.154Z,10.96
2019-02-09T13:16:23.103Z,10.82
2019-02-09T13:17:23.100Z,10.78